createdAt,value
2023-11-23T00:00:12.108Z,51.35
2023-11-23T00:01:11.824Z,52.86
2023-11-23T00:02:11.948Z,53.45
2023-11-23T00:03:11.862Z,50.80
2023-11-23T00:04:11.843Z,54.62
2023-11-23T00:05:11.741Z,51.78
2023-11-23T00:57:47.515Z,52.97
2023-11-23T00:58:11.279Z,53.68
2023-11-23T00:59:11.272Z,67.95
2023-11-23T01:00:11.419Z,87.79
2023-11-23T01:01:11.363Z,109.22
2023-11-23T01:02:11.446Z,128.90
2023-11-23T01:03:11.407Z,136.24
2023-11-23T01:04:11.372Z,121.84
2023-11-23T01:05:11.221Z,110.70
2023-11-23T01:06:11.257Z,104.36
2023-11-23T01:07:11.197Z,93.87
2023-11-23T01:08:11.261Z,89.59
2023-11-23T01:09:11.324Z,83.02
2023-11-23T01:10:11.165Z,80.38
2023-11-23T01:11:11.213Z,74.78
2023-11-23T01:12:11.214Z,69.70
2023-11-23T01:13:11.174Z,65.39
2023-11-23T01:14:11.177Z,65.64
2023-11-23T01:15:11.167Z,63.26
2023-11-23T01:16:11.129Z,60.77
2023-11-23T01:17:11.109Z,58.22
2023-11-23T01:18:11.226Z,56.51
2023-11-23T01:19:11.100Z,54.64
2023-11-23T01:20:11.142Z,55.37
2023-11-23T01:21:11.236Z,54.67
2023-11-23T01:22:11.079Z,53.84
2023-11-23T01:23:11.365Z,54.43
2023-11-23T01:24:11.058Z,50.00
2023-11-23T01:25:11.049Z,51.31
2023-11-23T01:26:11.025Z,51.58
2023-11-23T01:27:11.065Z,51.86
2023-11-23T01:28:11.072Z,51.62
2023-11-23T01:29:11.042Z,51.45
2023-11-23T01:30:11.198Z,52.53
2023-11-23T01:31:10.989Z,52.15
2023-11-23T01:32:10.991Z,53.79
2023-11-23T01:33:11.175Z,51.16
2023-11-23T01:34:11.168Z,52.89
2023-11-23T01:35:10.948Z,53.10
2023-11-23T01:36:10.946Z,51.30
2023-11-23T01:37:10.943Z,53.10
2023-11-23T01:38:10.941Z,52.73
2023-11-23T01:39:11.022Z,54.06
2023-11-23T01:40:10.911Z,52.07
2023-11-23T01:41:10.897Z,51.37
2023-11-23T01:42:10.905Z,53.37
2023-11-23T01:43:11.003Z,52.49
2023-11-23T01:44:10.879Z,53.17
2023-11-23T01:45:10.916Z,50.00
2023-11-23T01:46:10.909Z,53.71
2023-11-23T01:47:10.857Z,52.18
2023-11-23T01:48:10.953Z,52.84
2023-11-23T01:49:10.824Z,53.82
2023-11-23T01:50:14.281Z,52.85
2023-11-23T01:51:10.899Z,52.90
2023-11-23T01:52:10.803Z,52.71
2023-11-23T01:53:10.793Z,50.11
2023-11-23T01:54:10.841Z,52.53
2023-11-23T01:55:10.809Z,49.19
2023-11-23T01:56:10.768Z,50.00
2023-11-23T01:57:10.763Z,51.10
2023-11-23T01:58:10.765Z,50.00
2023-11-23T01:59:10.742Z,50.51
2023-11-23T02:00:10.800Z,52.89
2023-11-23T02:01:10.745Z,50.68
2023-11-23T02:02:10.772Z,50.91
2023-11-23T02:03:10.842Z,52.51
2023-11-23T02:04:10.732Z,51.56
2023-11-23T02:05:10.688Z,52.39
2023-11-23T02:06:10.749Z,52.18
2023-11-23T02:07:10.668Z,52.28
2023-11-23T02:08:10.672Z,51.68
2023-11-23T02:09:10.720Z,51.44
2023-11-23T02:10:10.641Z,51.58
2023-11-23T02:11:10.636Z,50.87
2023-11-23T02:12:10.684Z,54.11
2023-11-23T02:13:10.615Z,53.45
2023-11-23T02:14:10.610Z,52.34
2023-11-23T02:15:11.702Z,53.73
2023-11-23T02:16:10.631Z,53.88
2023-11-23T02:17:10.609Z,53.73
2023-11-23T02:18:10.677Z,53.56
2023-11-23T02:19:10.579Z,54.30
2023-11-23T02:20:10.649Z,51.95
2023-11-23T02:21:10.634Z,54.14
2023-11-23T02:22:10.543Z,53.13
2023-11-23T02:23:10.530Z,53.43
2023-11-23T02:24:10.570Z,51.25
2023-11-23T02:25:10.515Z,53.39
2023-11-23T02:26:10.504Z,54.09
2023-11-23T02:27:10.536Z,52.96
2023-11-23T02:28:10.486Z,52.05
2023-11-23T02:29:10.476Z,51.51
2023-11-23T02:30:10.559Z,54.21
2023-11-23T02:31:10.483Z,51.70
2023-11-23T02:32:10.466Z,53.46
2023-11-23T02:33:10.708Z,51.30
2023-11-23T02:34:10.433Z,50.92
2023-11-23T02:35:10.424Z,53.34
2023-11-23T02:36:10.464Z,51.98
2023-11-23T02:37:10.407Z,54.75
2023-11-23T02:38:10.391Z,53.14
2023-11-23T02:39:10.413Z,52.89
2023-11-23T02:40:10.385Z,53.38
2023-11-23T02:41:10.368Z,53.20
2023-11-23T02:42:10.358Z,53.72
2023-11-23T02:43:10.405Z,55.57
2023-11-23T02:44:10.356Z,54.02
2023-11-23T02:45:10.372Z,55.82
2023-11-23T02:46:10.349Z,53.81
2023-11-23T02:47:10.319Z,53.42
2023-11-23T02:48:10.400Z,53.29
2023-11-23T02:49:10.321Z,53.36
2023-11-23T02:50:10.487Z,56.33
2023-11-23T02:51:10.404Z,54.77
2023-11-23T02:52:10.269Z,54.69
2023-11-23T02:53:10.269Z,55.43
2023-11-23T02:54:10.256Z,53.58
2023-11-23T02:55:10.261Z,55.99
2023-11-23T02:56:10.236Z,52.00
2023-11-23T02:57:10.246Z,53.79
2023-11-23T02:58:10.218Z,54.63
2023-11-23T02:59:10.221Z,55.67
2023-11-23T03:00:10.264Z,54.13
2023-11-23T03:01:10.213Z,52.76
2023-11-23T03:02:10.244Z,54.02
2023-11-23T03:03:10.251Z,52.87
2023-11-23T03:04:10.181Z,55.44
2023-11-23T03:05:10.193Z,53.83
2023-11-23T03:06:10.232Z,52.88
2023-11-23T03:07:10.167Z,54.10
2023-11-23T03:08:10.129Z,54.73
2023-11-23T03:09:10.157Z,53.56
2023-11-23T03:10:10.124Z,55.59
2023-11-23T03:11:10.110Z,55.01
2023-11-23T03:12:10.168Z,53.30
2023-11-23T03:13:10.145Z,53.67
2023-11-23T03:14:10.083Z,53.93
2023-11-23T03:15:10.124Z,53.53
2023-11-23T03:16:10.115Z,51.66
2023-11-23T03:17:10.074Z,51.41
2023-11-23T03:18:11.876Z,53.07
2023-11-23T03:19:10.179Z,53.16
2023-11-23T03:20:10.034Z,53.09
2023-11-23T03:21:10.241Z,53.39
2023-11-23T03:22:10.029Z,53.77
2023-11-23T03:23:10.048Z,51.55
2023-11-23T03:24:10.051Z,57.15
2023-11-23T03:25:09.974Z,51.96
2023-11-23T03:26:10.049Z,52.36
2023-11-23T03:27:10.033Z,53.15
2023-11-23T03:28:09.967Z,52.55
2023-11-23T03:29:09.948Z,53.33
2023-11-23T03:30:09.989Z,54.62
2023-11-23T03:31:09.931Z,54.15
2023-11-23T03:32:09.942Z,55.62
2023-11-23T03:33:09.997Z,52.13
2023-11-23T03:34:09.900Z,53.24
2023-11-23T03:35:09.904Z,52.06
2023-11-23T03:36:09.922Z,52.67
2023-11-23T03:37:09.920Z,53.92
2023-11-23T03:38:09.989Z,51.44
2023-11-23T03:39:09.981Z,51.92
2023-11-23T03:40:09.864Z,51.57
2023-11-23T03:41:09.874Z,54.45
2023-11-23T03:42:09.875Z,53.23
2023-11-23T03:43:09.868Z,51.68
2023-11-23T03:44:09.824Z,52.55
2023-11-23T03:45:09.878Z,54.33
2023-11-23T03:46:09.839Z,53.29
2023-11-23T03:47:09.779Z,53.21
2023-11-23T03:48:09.920Z,54.93
2023-11-23T03:49:09.774Z,55.12
2023-11-23T03:50:09.769Z,54.38
2023-11-23T03:51:09.827Z,52.81
2023-11-23T03:52:09.746Z,53.33
2023-11-23T03:53:09.765Z,54.75
2023-11-23T03:54:09.835Z,55.29
2023-11-23T03:55:09.720Z,53.12
2023-11-23T03:56:09.714Z,52.42
2023-11-23T03:57:09.781Z,53.59
2023-11-23T03:58:09.712Z,53.18
2023-11-23T03:59:09.698Z,52.06
2023-11-23T04:00:09.947Z,55.16
2023-11-23T04:01:09.703Z,54.07
2023-11-23T04:02:09.804Z,52.45
2023-11-23T04:03:09.678Z,54.11
2023-11-23T04:04:09.634Z,50.00
2023-11-23T04:05:09.626Z,56.33
2023-11-23T04:06:09.637Z,53.09
2023-11-23T04:07:09.608Z,54.36
2023-11-23T04:08:09.597Z,54.78
2023-11-23T04:09:09.726Z,54.83
2023-11-23T04:10:09.581Z,52.61
2023-11-23T04:11:09.567Z,53.61
2023-11-23T04:12:09.617Z,53.79
2023-11-23T04:13:09.592Z,53.41
2023-11-23T04:14:09.572Z,53.78
2023-11-23T04:15:09.590Z,55.68
2023-11-23T04:16:09.525Z,53.80
2023-11-23T04:17:09.539Z,53.07
2023-11-23T04:18:09.572Z,51.77
2023-11-23T04:19:09.685Z,51.85
2023-11-23T04:20:09.488Z,53.04
2023-11-23T04:21:09.586Z,52.30
2023-11-23T04:22:09.473Z,53.03
2023-11-23T04:23:09.470Z,55.22
2023-11-23T04:24:09.538Z,52.14
2023-11-23T04:25:09.510Z,52.63
2023-11-23T04:26:09.435Z,52.02
2023-11-23T04:27:09.460Z,51.27
2023-11-23T04:28:09.428Z,52.47
2023-11-23T04:29:09.407Z,53.12
2023-11-23T04:30:09.445Z,56.09
2023-11-23T04:31:09.394Z,54.62
2023-11-23T04:32:09.385Z,53.36
2023-11-23T04:33:09.542Z,52.98
2023-11-23T04:34:09.463Z,53.71
2023-11-23T04:35:09.355Z,50.85
2023-11-23T04:36:09.402Z,53.85
2023-11-23T04:37:09.351Z,53.99
2023-11-23T04:38:09.337Z,52.95
2023-11-23T04:39:09.408Z,52.70
2023-11-23T04:40:09.341Z,54.71
2023-11-23T04:41:09.336Z,53.47
2023-11-23T04:42:09.367Z,53.03
2023-11-23T04:43:09.288Z,53.42
2023-11-23T04:44:09.300Z,54.08
2023-11-23T04:45:09.300Z,51.25
2023-11-23T04:46:09.343Z,54.46
2023-11-23T04:47:09.266Z,53.79
2023-11-23T04:48:09.387Z,52.65
2023-11-23T04:49:09.227Z,54.52
2023-11-23T04:50:09.226Z,53.16
2023-11-23T04:51:09.261Z,51.49
2023-11-23T04:52:09.212Z,53.59
2023-11-23T04:53:09.263Z,51.62
2023-11-23T04:54:09.217Z,56.54
2023-11-23T04:55:09.179Z,51.69
2023-11-23T04:56:09.191Z,51.76
2023-11-23T04:57:09.233Z,55.63
2023-11-23T04:58:09.160Z,56.57
2023-11-23T04:59:09.147Z,54.34
2023-11-23T05:00:09.158Z,53.79
2023-11-23T05:01:09.189Z,55.23
2023-11-23T05:02:09.169Z,53.91
2023-11-23T05:03:09.154Z,53.75
2023-11-23T05:04:09.207Z,54.34
2023-11-23T05:05:09.096Z,54.53
2023-11-23T05:06:09.166Z,52.33
2023-11-23T05:07:09.073Z,52.98
2023-11-23T05:08:09.079Z,54.42
2023-11-23T05:09:09.118Z,51.95
2023-11-23T05:10:09.054Z,54.08
2023-11-23T05:11:09.040Z,54.31
2023-11-23T05:12:09.076Z,51.06
2023-11-23T05:13:09.094Z,54.82
2023-11-23T05:14:09.237Z,55.17
2023-11-23T05:15:09.040Z,55.14
2023-11-23T05:16:09.007Z,52.70
2023-11-23T05:17:08.990Z,53.12
2023-11-23T05:18:09.056Z,52.30
2023-11-23T05:19:08.960Z,55.50
2023-11-23T05:20:08.955Z,52.97
2023-11-23T05:21:08.991Z,53.95
2023-11-23T05:22:08.995Z,54.11
2023-11-23T05:23:08.928Z,51.85
2023-11-23T05:24:08.981Z,51.02
2023-11-23T05:25:08.917Z,54.86
2023-11-23T05:26:08.909Z,53.04
2023-11-23T05:27:08.978Z,53.04
2023-11-23T05:28:08.901Z,52.40
2023-11-23T05:29:08.911Z,53.08
2023-11-23T05:30:08.907Z,54.60
2023-11-23T05:31:08.886Z,54.02
2023-11-23T05:32:08.858Z,53.09
2023-11-23T05:33:08.923Z,51.03
2023-11-23T05:34:08.836Z,52.27
2023-11-23T05:35:08.852Z,54.94
2023-11-23T05:36:08.852Z,53.18
2023-11-23T05:37:08.810Z,53.79
2023-11-23T05:38:08.799Z,55.00
2023-11-23T05:39:08.902Z,53.32
2023-11-23T05:40:08.893Z,52.17
2023-11-23T05:41:08.786Z,54.78
2023-11-23T05:42:08.828Z,52.95
2023-11-23T05:43:08.768Z,55.75
2023-11-23T05:44:08.749Z,54.12
2023-11-23T05:45:08.942Z,53.82
2023-11-23T05:46:11.187Z,52.84
2023-11-23T05:47:08.745Z,52.96
2023-11-23T05:48:08.778Z,53.38
2023-11-23T05:49:08.767Z,53.38
2023-11-23T05:50:08.703Z,54.22
2023-11-23T05:51:08.715Z,53.74
2023-11-23T05:52:08.733Z,54.45
2023-11-23T05:53:08.672Z,52.32
2023-11-23T05:54:08.698Z,55.29
2023-11-23T05:55:08.655Z,51.55
2023-11-23T05:56:08.647Z,53.09
2023-11-23T05:57:08.652Z,52.88
2023-11-23T05:58:08.622Z,53.90
2023-11-23T05:59:08.614Z,53.34
2023-11-23T06:00:08.703Z,53.76
2023-11-23T06:01:12.268Z,52.44
2023-11-23T06:02:08.643Z,52.54
2023-11-23T06:03:08.660Z,52.86
2023-11-23T06:04:08.753Z,53.12
2023-11-23T06:05:08.686Z,53.11
2023-11-23T06:06:08.604Z,53.18
2023-11-23T06:07:08.541Z,51.13
2023-11-23T06:08:08.543Z,51.60
2023-11-23T06:09:08.558Z,51.97
2023-11-23T06:10:08.544Z,53.22
2023-11-23T06:11:08.500Z,51.71
2023-11-23T06:12:08.540Z,52.98
2023-11-23T06:13:08.486Z,54.73
2023-11-23T06:14:08.476Z,52.60
2023-11-23T06:15:08.519Z,52.94
2023-11-23T06:16:08.478Z,52.74
2023-11-23T06:17:08.481Z,50.00
2023-11-23T06:18:13.840Z,53.33
2023-11-23T06:19:08.444Z,53.47
2023-11-23T06:20:08.426Z,53.72
2023-11-23T06:21:08.451Z,54.94
2023-11-23T06:22:08.421Z,54.24
2023-11-23T06:23:08.407Z,52.93
2023-11-23T06:24:08.452Z,53.19
2023-11-23T06:25:08.384Z,57.09
2023-11-23T06:26:08.388Z,68.03
2023-11-23T06:27:08.383Z,82.69
2023-11-23T06:28:14.926Z,83.73
